Scf Baltica — A8IA5 — position and weather

sailwx.info

Track history (hours):
 
Tides and Currents Weather Stations Pressure Air Temp Water Temp Dewpoint Dewpoint Depression Visibility Wind Speed Wind Dir Waves Ship Positions

Scf Baltica

Last reported at 2014-Sep-20 23:33 UTC. Time now 2014-Sep-21 00:02 UTC.
Position N 54°53' E 013°28'.

Length 250 m; draft 8.8 m.

Type: Ship. MMSI: 636012813.

Date/timePositionNaut miles runAvg speedWind from/ knotsBaromVisibWave heightAir tempDewpointWater temp
2014-Sep-20 23:33N 54°53' E 013°28'1010.1
2014-Sep-20 22:32N 54°50' E 013°11'1010.3
2014-Sep-20 21:33N 54°46' E 012°54'1010.1
2014-Sep-20 20:33N 54°42' E 012°38'1010.0
2014-Sep-20 19:33N 54°37' E 012°23'9 9.4
2014-Sep-20 18:33N 54°30' E 012°14'9 8.6
2014-Sep-20 17:33N 54°25' E 012°01'9 8.9
2014-Sep-20 16:33N 54°25' E 011°46'1010.2
2014-Sep-20 15:33N 54°30' E 011°30'10 9.6
2014-Sep-20 14:33N 54°34' E 011°15'10 9.5
2014-Sep-20 13:33N 54°38' E 011°01'7210.4
2014-Sep-20 06:33N 55°50' E 010°50'1110.0
2014-Sep-20 05:28N 55°59' E 011°02'1010.1
2014-Sep-20 04:28N 56°08' E 011°11'1110.2
2014-Sep-20 03:24N 56°17' E 011°22'1010.4
2014-Sep-20 02:27N 56°25' E 011°31'9 9.8
2014-Sep-20 01:33N 56°33' E 011°39'10 9.4
2014-Sep-20 00:32N 56°41' E 011°48'9 8.8
2014-Sep-19 23:33N 56°50' E 011°49'10 9.6
2014-Sep-19 22:33N 56°59' E 011°44'9 9.2
2014-Sep-19 21:33N 57°07' E 011°38'9 9.0
2014-Sep-19 20:33N 57°16' E 011°32'9 9.3
2014-Sep-19 19:33N 57°24' E 011°26'10 9.8
2014-Sep-19 18:33N 57°34' E 011°20'1010.1
2014-Sep-19 17:33N 57°43' E 011°13'1010.1
2014-Sep-19 16:33N 57°53' E 011°09'1110.4
2014-Sep-19 15:32N 58°04' E 011°09'13 9.3
2014-Sep-19 14:09N 58°16' E 011°15'5 0.1
2014-Sep-18 00:33N 58°20' E 011°22'9 9.0
2014-Sep-17 23:33N 58°13' E 011°10'1010.2
2014-Sep-17 22:33N 58°03' E 011°12'1212.0
2014-Sep-17 21:33N 57°51' E 011°17'1212.0
2014-Sep-17 20:33N 57°40' E 011°22'1212.1
2014-Sep-17 19:33N 57°28' E 011°28'1211.8
2014-Sep-17 18:33N 57°17' E 011°34'1311.9
2014-Sep-17 17:29N 57°05' E 011°42'1111.5
2014-Sep-17 16:33N 56°55' E 011°48'1111.0
2014-Sep-17 15:33N 56°44' E 011°52'1211.7
2014-Sep-17 14:33N 56°34' E 011°41'6510.6
2014-Sep-17 08:28N 55°36' E 010°49'2110.0
2014-Sep-17 06:20N 55°16' E 011°04'7 9.5
2014-Sep-17 05:34N 55°09' E 011°00'1211.2
2014-Sep-17 04:30N 54°58' E 010°56'1112.0
2014-Sep-17 03:33N 54°47' E 010°49'10 9.6
2014-Sep-17 02:33N 54°38' E 010°55'1212.0
2014-Sep-17 01:33N 54°35' E 011°15'1212.0
2014-Sep-17 00:33N 54°30' E 011°33'1212.0
2014-Sep-16 23:33N 54°26' E 011°53'1110.8
2014-Sep-16 22:33N 54°27' E 012°11'10 9.8
2014-Sep-16 21:34N 54°37' E 012°17'7 7.2
2014-Sep-16 20:33N 54°41' E 012°28'7 6.8
2014-Sep-16 19:33N 54°44' E 012°38'8 7.7
2014-Sep-16 18:33N 54°48' E 012°49'1111.0
2014-Sep-16 17:33N 54°52' E 013°07'1212.2
2014-Sep-16 16:33N 54°56' E 013°27'1211.6
2014-Sep-16 15:33N 55°00' E 013°46'1211.5
2014-Sep-16 14:33N 55°04' E 014°05'1211.7
2014-Sep-16 13:33N 55°13' E 014°17'1212.4
2014-Sep-16 12:33N 55°23' E 014°31'1211.8
2014-Sep-16 11:33N 55°30' E 014°48'1212.0
2014-Sep-16 10:32N 55°36' E 015°06'1511.8
2014-Sep-16 09:18N 55°40' E 015°31'5911.8
2014-Sep-16 04:18N 55°54' E 017°14'911.8
2014-Sep-16 03:33N 55°56' E 017°29'2411.7
2014-Sep-16 01:33N 56°07' E 018°06'2711.9
2014-Sep-15 23:18N 56°22' E 018°46'2512.1
2014-Sep-15 21:16N 56°44' E 019°07'1012.2
2014-Sep-15 20:26N 56°53' E 019°16'20211.9
2014-Sep-15 03:24N 59°35' E 023°05'1012.2
2014-Sep-15 02:33N 59°38' E 023°24'1212.0
2014-Sep-15 01:33N 59°41' E 023°47'1212.1
2014-Sep-15 00:32N 59°45' E 024°10'1212.0
2014-Sep-14 23:33N 59°48' E 024°32'1211.8
2014-Sep-14 22:33N 59°50' E 024°56'2411.7
2014-Sep-14 20:33N 59°55' E 025°42'1111.5
2014-Sep-14 19:33N 59°58' E 026°04'1411.4
2014-Sep-14 18:22N 60°01' E 026°30'1011.3
2014-Sep-14 17:30N 60°00' E 026°50'1010.8
2014-Sep-14 16:32N 60°01' E 027°10'  
Track history (hours):
 
Tides and Currents Weather Stations Pressure Air Temp Water Temp Dewpoint Dewpoint Depression Visibility Wind Speed Wind Dir Waves Ship Positions

Scf Baltica

Last reported at 2014-Sep-20 23:33 UTC. Time now 2014-Sep-21 00:02 UTC.
Position N 54°53' E 013°28'.

Length 250 m; draft 8.8 m.

Type: Ship. MMSI: 636012813.

Date/timePositionNaut miles runAvg speedWind from/ knotsBaromVisibWave heightAir tempDewpointWater temp
2014-Sep-20 23:33N 54°53' E 013°28'1010.1
2014-Sep-20 22:32N 54°50' E 013°11'1010.3
2014-Sep-20 21:33N 54°46' E 012°54'1010.1
2014-Sep-20 20:33N 54°42' E 012°38'1010.0
2014-Sep-20 19:33N 54°37' E 012°23'9 9.4
2014-Sep-20 18:33N 54°30' E 012°14'9 8.6
2014-Sep-20 17:33N 54°25' E 012°01'9 8.9
2014-Sep-20 16:33N 54°25' E 011°46'1010.2
2014-Sep-20 15:33N 54°30' E 011°30'10 9.6
2014-Sep-20 14:33N 54°34' E 011°15'10 9.5
2014-Sep-20 13:33N 54°38' E 011°01'7210.4
2014-Sep-20 06:33N 55°50' E 010°50'1110.0
2014-Sep-20 05:28N 55°59' E 011°02'1010.1
2014-Sep-20 04:28N 56°08' E 011°11'1110.2
2014-Sep-20 03:24N 56°17' E 011°22'1010.4
2014-Sep-20 02:27N 56°25' E 011°31'9 9.8
2014-Sep-20 01:33N 56°33' E 011°39'10 9.4
2014-Sep-20 00:32N 56°41' E 011°48'9 8.8
2014-Sep-19 23:33N 56°50' E 011°49'10 9.6
2014-Sep-19 22:33N 56°59' E 011°44'9 9.2
2014-Sep-19 21:33N 57°07' E 011°38'9 9.0
2014-Sep-19 20:33N 57°16' E 011°32'9 9.3
2014-Sep-19 19:33N 57°24' E 011°26'10 9.8
2014-Sep-19 18:33N 57°34' E 011°20'1010.1
2014-Sep-19 17:33N 57°43' E 011°13'1010.1
2014-Sep-19 16:33N 57°53' E 011°09'1110.4
2014-Sep-19 15:32N 58°04' E 011°09'13 9.3
2014-Sep-19 14:09N 58°16' E 011°15'5 0.1
2014-Sep-18 00:33N 58°20' E 011°22'9 9.0
2014-Sep-17 23:33N 58°13' E 011°10'1010.2
2014-Sep-17 22:33N 58°03' E 011°12'1212.0
2014-Sep-17 21:33N 57°51' E 011°17'1212.0
2014-Sep-17 20:33N 57°40' E 011°22'1212.1
2014-Sep-17 19:33N 57°28' E 011°28'1211.8
2014-Sep-17 18:33N 57°17' E 011°34'1311.9
2014-Sep-17 17:29N 57°05' E 011°42'1111.5
2014-Sep-17 16:33N 56°55' E 011°48'1111.0
2014-Sep-17 15:33N 56°44' E 011°52'1211.7
2014-Sep-17 14:33N 56°34' E 011°41'6510.6
2014-Sep-17 08:28N 55°36' E 010°49'2110.0
2014-Sep-17 06:20N 55°16' E 011°04'7 9.5
2014-Sep-17 05:34N 55°09' E 011°00'1211.2
2014-Sep-17 04:30N 54°58' E 010°56'1112.0
2014-Sep-17 03:33N 54°47' E 010°49'10 9.6
2014-Sep-17 02:33N 54°38' E 010°55'1212.0
2014-Sep-17 01:33N 54°35' E 011°15'1212.0
2014-Sep-17 00:33N 54°30' E 011°33'1212.0
2014-Sep-16 23:33N 54°26' E 011°53'1110.8
2014-Sep-16 22:33N 54°27' E 012°11'10 9.8
2014-Sep-16 21:34N 54°37' E 012°17'7 7.2
2014-Sep-16 20:33N 54°41' E 012°28'7 6.8
2014-Sep-16 19:33N 54°44' E 012°38'8 7.7
2014-Sep-16 18:33N 54°48' E 012°49'1111.0
2014-Sep-16 17:33N 54°52' E 013°07'1212.2
2014-Sep-16 16:33N 54°56' E 013°27'1211.6
2014-Sep-16 15:33N 55°00' E 013°46'1211.5
2014-Sep-16 14:33N 55°04' E 014°05'1211.7
2014-Sep-16 13:33N 55°13' E 014°17'1212.4
2014-Sep-16 12:33N 55°23' E 014°31'1211.8
2014-Sep-16 11:33N 55°30' E 014°48'1212.0
2014-Sep-16 10:32N 55°36' E 015°06'1511.8
2014-Sep-16 09:18N 55°40' E 015°31'5911.8
2014-Sep-16 04:18N 55°54' E 017°14'911.8
2014-Sep-16 03:33N 55°56' E 017°29'2411.7
2014-Sep-16 01:33N 56°07' E 018°06'2711.9
2014-Sep-15 23:18N 56°22' E 018°46'2512.1
2014-Sep-15 21:16N 56°44' E 019°07'1012.2
2014-Sep-15 20:26N 56°53' E 019°16'20211.9
2014-Sep-15 03:24N 59°35' E 023°05'1012.2
2014-Sep-15 02:33N 59°38' E 023°24'1212.0
2014-Sep-15 01:33N 59°41' E 023°47'1212.1
2014-Sep-15 00:32N 59°45' E 024°10'1212.0
2014-Sep-14 23:33N 59°48' E 024°32'1211.8
2014-Sep-14 22:33N 59°50' E 024°56'2411.7
2014-Sep-14 20:33N 59°55' E 025°42'1111.5
2014-Sep-14 19:33N 59°58' E 026°04'1411.4
2014-Sep-14 18:22N 60°01' E 026°30'1011.3
2014-Sep-14 17:30N 60°00' E 026°50'1010.8
2014-Sep-14 16:32N 60°01' E 027°10'  

Dump ship's entire track history